Time;durP1;ratioP1;P1;durP2;ratioP2;P2;SDS_P1;SDS_P2;PMS_P1;PMS_P2;Temp;Humidity;BMP_temperature;BMP_pressure;BME280_temperature;BME280_humidity;BME280_pressure;Samples;Min_cycle;Max_cycle;Signal;HPM_P1;HPM_P2
2022/07/11 00:02:01;;;;;;;2.30;1.20;;;17.10;99.90;;;;;;5046195;28;20413;-73
2022/07/11 00:04:27;;;;;;;1.77;1.20;;;17.10;99.90;;;;;;5027874;28;20626;-74
2022/07/11 00:06:53;;;;;;;1.70;1.27;;;17.10;99.90;;;;;;5046381;28;20919;-72
2022/07/11 00:09:19;;;;;;;1.53;1.13;;;17.10;99.90;;;;;;5045647;28;20405;-73
2022/07/11 00:11:44;;;;;;;2.20;1.60;;;17.10;99.90;;;;;;5045594;28;20226;-73
2022/07/11 00:14:10;;;;;;;1.20;1.10;;;17.10;99.90;;;;;;5046036;28;20554;-72
2022/07/11 00:16:35;;;;;;;1.50;1.20;;;17.20;99.90;;;;;;5028017;28;20186;-72
2022/07/11 00:19:01;;;;;;;1.33;1.07;;;17.20;99.90;;;;;;5045659;28;20465;-73
2022/07/11 00:21:27;;;;;;;1.40;1.20;;;17.20;99.90;;;;;;5045919;28;20202;-72
2022/07/11 00:23:52;;;;;;;2.50;1.13;;;17.10;99.90;;;;;;5045008;28;20198;-73
2022/07/11 00:26:18;;;;;;;1.97;1.30;;;17.20;99.90;;;;;;5045958;28;20181;-73
2022/07/11 00:28:43;;;;;;;1.30;1.20;;;17.20;99.90;;;;;;5045940;28;20189;-72
2022/07/11 00:31:10;;;;;;;2.07;1.67;;;17.20;99.90;;;;;;5045628;28;20235;-73
2022/07/11 00:33:35;;;;;;;2.50;1.40;;;17.30;99.90;;;;;;5045804;28;20215;-73
2022/07/11 00:36:01;;;;;;;2.53;1.27;;;17.30;99.90;;;;;;5045597;28;20412;-73
2022/07/11 00:38:26;;;;;;;1.87;1.27;;;17.20;99.90;;;;;;5045332;28;20184;-72
2022/07/11 00:40:52;;;;;;;1.30;1.20;;;17.30;99.90;;;;;;5045432;28;20644;-72
2022/07/11 00:43:19;;;;;;;2.00;1.20;;;17.40;99.90;;;;;;5045570;28;20343;-72
2022/07/11 00:45:47;;;;;;;2.20;1.57;;;17.30;99.90;;;;;;5045040;28;20677;-73
2022/07/11 00:48:13;;;;;;;2.90;1.10;;;17.30;99.90;;;;;;5045105;28;20619;-72
2022/07/11 00:50:39;;;;;;;1.67;1.57;;;17.40;99.90;;;;;;5045325;28;20826;-71
2022/07/11 00:53:04;;;;;;;2.20;1.47;;;17.40;99.90;;;;;;5045116;28;20186;-72
2022/07/11 00:55:30;;;;;;;2.90;1.50;;;17.20;99.90;;;;;;5044215;28;20180;-72
2022/07/11 00:57:56;;;;;;;2.00;1.40;;;17.20;99.90;;;;;;5044988;28;20173;-73
2022/07/11 01:00:22;;;;;;;3.27;1.50;;;17.10;99.90;;;;;;5044342;28;20200;-73
2022/07/11 01:02:47;;;;;;;1.40;1.30;;;17.00;99.90;;;;;;5045006;28;20814;-72
2022/07/11 01:05:13;;;;;;;1.47;1.37;;;17.00;99.90;;;;;;5045052;28;20174;-73
2022/07/11 01:07:38;;;;;;;2.93;1.57;;;17.00;99.90;;;;;;5045129;28;20263;-71
2022/07/11 01:10:05;;;;;;;2.50;1.50;;;17.00;99.90;;;;;;5044426;28;20212;-72
2022/07/11 01:12:31;;;;;;;1.67;1.50;;;16.90;99.90;;;;;;5045152;28;20182;-73
2022/07/11 01:14:59;;;;;;;2.13;1.93;;;17.00;99.90;;;;;;5044814;28;20420;-72
2022/07/11 01:17:25;;;;;;;3.07;1.77;;;17.10;99.90;;;;;;5044642;28;20458;-72
2022/07/11 01:19:50;;;;;;;2.63;1.83;;;17.20;99.90;;;;;;5044704;28;20482;-72
2022/07/11 01:22:20;;;;;;;2.03;1.90;;;17.00;99.90;;;;;;5044190;28;20586;-73
2022/07/11 01:24:46;;;;;;;2.90;2.30;;;17.00;99.90;;;;;;5044332;28;20543;-73
2022/07/11 01:27:13;;;;;;;2.17;2.00;;;16.90;99.90;;;;;;5044900;28;20494;-72
2022/07/11 01:29:39;;;;;;;2.43;2.23;;;16.70;99.90;;;;;;5044322;28;20212;-73
2022/07/11 01:32:07;;;;;;;2.87;2.30;;;16.80;99.90;;;;;;5044924;28;20438;-72
2022/07/11 01:34:32;;;;;;;2.30;2.10;;;16.90;99.90;;;;;;5045016;28;20450;-72
2022/07/11 01:36:58;;;;;;;2.30;2.10;;;17.00;99.90;;;;;;5044427;28;20491;-73
2022/07/11 01:39:23;;;;;;;3.83;2.20;;;16.90;99.90;;;;;;5044055;28;20726;-74
2022/07/11 01:41:49;;;;;;;5.13;2.70;;;17.00;99.90;;;;;;5044446;28;20182;-73
2022/07/11 01:44:15;;;;;;;3.33;2.33;;;17.00;99.90;;;;;;5044675;28;20686;-72
2022/07/11 01:46:40;;;;;;;2.70;2.50;;;17.00;99.90;;;;;;5026580;28;20208;-73
2022/07/11 01:49:06;;;;;;;2.80;2.60;;;17.00;99.90;;;;;;5044910;28;20225;-72
2022/07/11 01:51:32;;;;;;;2.93;2.73;;;17.10;99.90;;;;;;5044227;28;20617;-73
2022/07/11 01:53:57;;;;;;;2.40;2.20;;;17.10;99.90;;;;;;5044585;28;20671;-73
2022/07/11 01:56:23;;;;;;;3.30;2.63;;;17.10;99.90;;;;;;5043751;28;20200;-73
2022/07/11 01:58:49;;;;;;;3.10;2.43;;;17.10;99.90;;;;;;5043804;28;20256;-73
2022/07/11 02:01:15;;;;;;;2.83;2.20;;;17.20;99.90;;;;;;5026186;28;20242;-72
2022/07/11 02:04:01;;;;;;;2.00;1.90;;;17.30;99.90;;;;;;5026348;28;20218;-73
2022/07/11 02:06:26;;;;;;;2.50;2.30;;;17.10;99.90;;;;;;5043184;28;20401;-73
2022/07/11 02:08:52;;;;;;;3.20;2.57;;;17.10;99.90;;;;;;5043742;28;20420;-73
2022/07/11 02:11:17;;;;;;;2.93;2.63;;;17.00;99.90;;;;;;5044636;28;20196;-73
2022/07/11 02:13:43;;;;;;;2.70;2.50;;;17.10;99.90;;;;;;5044257;28;20178;-71
2022/07/11 02:16:08;;;;;;;2.80;2.60;;;17.20;99.90;;;;;;5044429;28;20577;-73
2022/07/11 02:18:34;;;;;;;2.50;2.30;;;17.20;99.90;;;;;;5044171;28;20181;-72
2022/07/11 02:21:00;;;;;;;3.53;2.70;;;17.30;99.90;;;;;;5043990;28;20250;-73
2022/07/11 02:23:26;;;;;;;2.77;2.57;;;17.30;99.90;;;;;;5044477;28;20202;-72
2022/07/11 02:25:53;;;;;;;3.10;2.80;;;17.30;99.90;;;;;;5043597;28;20460;-73
2022/07/11 02:28:19;;;;;;;3.03;2.73;;;17.40;99.90;;;;;;5044050;28;20170;-73
2022/07/11 02:30:45;;;;;;;2.80;2.60;;;17.50;99.90;;;;;;5043708;28;20947;-72
2022/07/11 02:33:15;;;;;;;2.40;2.20;;;17.50;99.90;;;;;;5043994;28;20511;-72
2022/07/11 02:35:46;;;;;;;6.63;3.20;;;17.50;99.90;;;;;;5048048;28;20418;-73
2022/07/11 02:38:14;;;;;;;3.03;2.77;;;17.50;99.90;;;;;;5047920;28;20495;-73
2022/07/11 02:40:40;;;;;;;2.63;2.43;;;17.50;99.90;;;;;;5029428;28;20522;-73
2022/07/11 02:43:06;;;;;;;2.13;2.00;;;17.50;99.90;;;;;;5047603;28;20942;-72
2022/07/11 02:45:31;;;;;;;2.77;2.20;;;17.60;99.90;;;;;;5048109;28;20186;-73
2022/07/11 02:47:57;;;;;;;2.80;2.60;;;17.60;99.90;;;;;;5047763;28;20181;-72
2022/07/11 02:50:23;;;;;;;4.30;2.57;;;17.60;99.90;;;;;;5047928;28;20202;-74
2022/07/11 02:52:48;;;;;;;2.97;2.70;;;17.60;99.90;;;;;;5047938;28;20177;-73
2022/07/11 02:55:15;;;;;;;2.50;2.30;;;17.60;99.90;;;;;;5047448;28;20984;-72
2022/07/11 02:57:41;;;;;;;2.80;2.60;;;17.60;99.90;;;;;;5047659;28;20218;-72
2022/07/11 03:00:10;;;;;;;2.07;1.80;;;17.70;99.90;;;;;;5047755;28;20813;-73
2022/07/11 03:02:36;;;;;;;2.77;2.50;;;17.70;99.90;;;;;;5047782;28;20555;-73
2022/07/11 03:05:02;;;;;;;2.10;1.90;;;17.70;99.90;;;;;;5047112;28;20520;-73
2022/07/11 03:07:28;;;;;;;2.13;2.03;;;17.90;99.90;;;;;;5047202;28;20228;-73
2022/07/11 03:09:57;;;;;;;3.87;2.30;;;18.00;99.90;;;;;;5047030;28;20446;-72
2022/07/11 03:12:23;;;;;;;2.40;2.20;;;18.00;99.90;;;;;;5047212;28;20312;-73
2022/07/11 03:14:49;;;;;;;2.87;2.67;;;17.90;99.90;;;;;;5047446;28;20797;-74
2022/07/11 03:17:17;;;;;;;2.50;2.30;;;17.80;99.90;;;;;;5047001;28;20409;-72
2022/07/11 03:19:42;;;;;;;5.97;2.77;;;17.90;99.90;;;;;;5047487;28;20195;-72
2022/07/11 03:22:08;;;;;;;2.57;2.37;;;18.00;99.90;;;;;;5047316;28;21295;-72
2022/07/11 03:24:34;;;;;;;2.63;2.43;;;17.90;99.90;;;;;;5047099;28;20182;-73
2022/07/11 03:26:59;;;;;;;2.50;2.30;;;17.90;99.90;;;;;;5047047;28;20585;-72
2022/07/11 03:29:25;;;;;;;2.73;2.53;;;17.80;99.90;;;;;;5047051;28;20253;-73
2022/07/11 03:31:51;;;;;;;2.97;2.70;;;17.80;99.90;;;;;;5046936;28;20174;-72
2022/07/11 03:34:16;;;;;;;3.13;2.87;;;17.80;99.90;;;;;;5047631;28;20193;-72
2022/07/11 03:36:42;;;;;;;2.93;2.73;;;17.90;99.90;;;;;;5047661;28;20187;-73
2022/07/11 03:39:07;;;;;;;3.47;3.27;;;17.90;99.90;;;;;;5047614;28;20203;-74
2022/07/11 03:41:33;;;;;;;2.57;2.47;;;17.90;99.90;;;;;;5047284;28;20220;-73
2022/07/11 03:43:59;;;;;;;2.90;2.70;;;18.00;99.90;;;;;;5047672;28;20210;-72
2022/07/11 03:46:24;;;;;;;3.30;3.00;;;18.00;99.90;;;;;;5046309;28;20661;-73
2022/07/11 03:48:50;;;;;;;2.57;2.37;;;18.00;99.90;;;;;;5046915;28;20384;-72
2022/07/11 03:51:19;;;;;;;2.83;2.63;;;18.00;99.90;;;;;;5047077;28;20201;-72
2022/07/11 03:53:44;;;;;;;3.20;2.90;;;18.10;99.90;;;;;;5046459;28;20183;-72
2022/07/11 03:56:10;;;;;;;4.20;2.90;;;18.20;99.90;;;;;;5046480;28;20784;-73
2022/07/11 03:58:36;;;;;;;2.83;2.63;;;18.10;99.90;;;;;;5046758;28;20231;-72
2022/07/11 04:01:01;;;;;;;2.57;2.37;;;18.10;99.90;;;;;;5046611;28;20822;-72
2022/07/11 04:03:27;;;;;;;2.87;2.57;;;18.10;99.90;;;;;;5046766;28;20213;-73
2022/07/11 04:05:52;;;;;;;2.97;2.77;;;18.10;99.90;;;;;;5046338;28;20191;-73
2022/07/11 04:08:18;;;;;;;3.40;2.63;;;18.00;99.90;;;;;;5046566;28;20190;-72
2022/07/11 04:10:43;;;;;;;2.70;2.50;;;17.90;99.90;;;;;;5045898;28;20202;-72
2022/07/11 04:13:09;;;;;;;3.37;3.17;;;18.00;99.90;;;;;;5046611;28;20186;-73
2022/07/11 04:15:35;;;;;;;3.10;2.90;;;18.10;99.90;;;;;;5046348;28;20650;-73
2022/07/11 04:18:01;;;;;;;3.50;3.20;;;18.30;99.90;;;;;;5046384;28;20558;-72
2022/07/11 04:20:26;;;;;;;3.23;2.93;;;18.30;99.90;;;;;;5046416;28;20224;-72
2022/07/11 04:22:52;;;;;;;3.60;2.97;;;18.40;99.90;;;;;;5046648;28;20198;-72
2022/07/11 04:25:17;;;;;;;3.57;3.37;;;18.40;99.90;;;;;;5046000;28;20598;-73
2022/07/11 04:27:43;;;;;;;3.20;2.90;;;18.50;99.90;;;;;;5046369;28;20198;-73
2022/07/11 04:30:09;;;;;;;3.50;3.20;;;18.60;99.90;;;;;;5045974;28;20225;-73
2022/07/11 04:32:35;;;;;;;2.63;2.50;;;18.60;99.90;;;;;;5046033;28;20552;-72
2022/07/11 04:35:02;;;;;;;2.83;2.50;;;18.60;99.90;;;;;;5046119;28;20482;-72
2022/07/11 04:37:27;;;;;;;5.63;3.20;;;18.60;99.90;;;;;;5046449;28;20416;-72
2022/07/11 04:39:53;;;;;;;3.17;2.97;;;18.60;99.90;;;;;;5027497;28;21007;-73
2022/07/11 04:42:19;;;;;;;4.63;3.13;;;18.60;99.90;;;;;;5045640;28;20581;-71
2022/07/11 04:44:44;;;;;;;3.87;3.57;;;18.60;99.90;;;;;;5045843;28;20210;-72
2022/07/11 04:47:10;;;;;;;3.67;3.37;;;18.70;99.90;;;;;;5045791;28;20171;-72
2022/07/11 04:49:36;;;;;;;4.00;3.70;;;18.90;99.90;;;;;;5045408;28;20249;-72
2022/07/11 04:52:02;;;;;;;3.67;3.37;;;18.80;99.90;;;;;;5046128;28;20240;-73
2022/07/11 04:54:27;;;;;;;3.57;3.27;;;18.90;99.90;;;;;;5044972;28;20419;-73
2022/07/11 04:56:53;;;;;;;4.20;3.80;;;18.90;99.90;;;;;;5043845;28;20217;-73
2022/07/11 04:59:18;;;;;;;4.90;3.57;;;19.00;99.90;;;;;;5043435;28;20191;-73
2022/07/11 05:01:44;;;;;;;3.83;3.53;;;19.20;99.90;;;;;;5043982;28;20191;-72
2022/07/11 05:04:10;;;;;;;4.17;3.87;;;19.30;99.90;;;;;;5045042;28;20201;-73
2022/07/11 05:06:35;;;;;;;3.90;3.60;;;19.30;99.90;;;;;;5044546;28;20210;-73
2022/07/11 05:09:02;;;;;;;4.70;4.37;;;19.30;99.90;;;;;;5044949;28;21097;-72
2022/07/11 05:11:27;;;;;;;4.60;4.20;;;19.40;99.90;;;;;;5045076;28;20201;-73
2022/07/11 05:13:53;;;;;;;4.80;4.03;;;19.40;99.90;;;;;;5044861;28;20851;-72
2022/07/11 05:16:18;;;;;;;4.53;4.10;;;19.50;99.90;;;;;;5043753;28;20178;-73
2022/07/11 05:18:44;;;;;;;4.90;4.20;;;19.30;99.90;;;;;;5045057;28;20261;-73
2022/07/11 05:21:10;;;;;;;5.47;4.57;;;19.10;99.90;;;;;;5045087;28;20572;-73
2022/07/11 05:23:35;;;;;;;4.77;3.70;;;19.00;99.90;;;;;;5045085;28;20291;-74
2022/07/11 05:26:01;;;;;;;4.73;4.33;;;19.00;99.90;;;;;;5045324;28;20182;-72
2022/07/11 05:28:26;;;;;;;4.53;4.13;;;19.10;99.90;;;;;;5026934;28;20193;-73
2022/07/11 05:30:52;;;;;;;3.97;3.57;;;19.00;99.90;;;;;;5044595;28;20214;-74
2022/07/11 05:33:17;;;;;;;4.20;3.80;;;19.20;99.90;;;;;;5044882;28;20194;-73
2022/07/11 05:35:43;;;;;;;3.87;3.67;;;19.30;99.90;;;;;;5044193;28;20602;-72
2022/07/11 05:38:09;;;;;;;6.47;4.27;;;19.40;99.90;;;;;;5044482;28;20182;-72
2022/07/11 05:40:34;;;;;;;4.60;4.20;;;19.40;99.90;;;;;;5044075;28;20275;-73
2022/07/11 05:43:00;;;;;;;4.67;4.20;;;19.70;99.90;;;;;;5044806;28;20293;-71
2022/07/11 05:45:26;;;;;;;5.30;4.90;;;19.60;99.90;;;;;;5044551;28;20623;-73
2022/07/11 05:47:52;;;;;;;4.30;3.90;;;19.50;99.90;;;;;;5044690;28;20935;-73
2022/07/11 05:50:18;;;;;;;4.27;3.70;;;19.50;99.90;;;;;;5044484;28;20429;-71
2022/07/11 05:52:43;;;;;;;8.13;4.30;;;19.70;99.90;;;;;;5044606;28;20178;-72
2022/07/11 05:55:09;;;;;;;4.27;3.80;;;19.60;99.90;;;;;;5044408;28;20183;-72
2022/07/11 05:57:34;;;;;;;5.07;3.73;;;19.80;99.90;;;;;;5044364;28;21304;-72
2022/07/11 06:00:00;;;;;;;3.90;3.50;;;19.90;99.90;;;;;;5044337;28;20202;-73
2022/07/11 06:02:26;;;;;;;4.67;4.27;;;19.80;99.90;;;;;;5043570;28;20190;-73
2022/07/11 06:04:51;;;;;;;4.30;4.00;;;19.90;99.90;;;;;;5044032;28;20174;-72
2022/07/11 06:10:01;;;;;;;4.70;4.30;;;20.00;99.90;;;;;;5048056;28;20272;-73
2022/07/11 06:12:27;;;;;;;4.23;3.93;;;20.10;99.90;;;;;;5048523;28;20409;-73
2022/07/11 06:14:52;;;;;;;5.70;4.70;;;20.10;99.90;;;;;;5048152;28;20611;-73
2022/07/11 06:17:18;;;;;;;5.50;4.67;;;20.10;99.90;;;;;;5029789;28;20182;-73
2022/07/11 06:19:43;;;;;;;4.67;4.37;;;20.00;99.90;;;;;;5047993;28;20651;-72
2022/07/11 06:22:09;;;;;;;5.90;3.80;;;20.30;99.90;;;;;;5048130;28;20674;-73
2022/07/11 06:24:34;;;;;;;5.23;4.00;;;20.50;99.90;;;;;;5048135;28;20248;-72
2022/07/11 06:27:00;;;;;;;4.13;3.83;;;20.60;99.90;;;;;;5047746;28;20189;-73
2022/07/11 06:29:26;;;;;;;4.37;3.97;;;20.80;99.90;;;;;;5048213;28;20170;-73
2022/07/11 06:31:52;;;;;;;4.40;4.00;;;20.60;99.90;;;;;;5047570;28;20210;-72
2022/07/11 06:34:18;;;;;;;5.10;4.60;;;20.60;99.90;;;;;;5048077;28;20844;-71
2022/07/11 06:36:44;;;;;;;6.73;4.50;;;20.50;99.90;;;;;;5047047;28;20269;-73
2022/07/11 06:39:09;;;;;;;5.10;4.20;;;20.50;99.90;;;;;;5047964;28;20463;-72
2022/07/11 06:41:35;;;;;;;5.67;5.10;;;20.50;99.90;;;;;;5047760;28;20718;-72
2022/07/11 06:44:00;;;;;;;5.00;4.60;;;20.40;99.90;;;;;;5047804;28;20205;-71
2022/07/11 06:46:27;;;;;;;5.10;4.63;;;20.20;99.90;;;;;;5047297;28;20175;-73
2022/07/11 06:48:52;;;;;;;5.10;4.60;;;19.90;99.90;;;;;;5047408;28;20218;-73
2022/07/11 06:51:18;;;;;;;4.47;4.03;;;20.10;99.90;;;;;;5047725;28;20471;-73
2022/07/11 06:53:44;;;;;;;5.73;4.40;;;20.50;99.90;;;;;;5029537;28;20187;-72
2022/07/11 06:56:09;;;;;;;4.97;4.50;;;20.50;99.90;;;;;;5047492;28;20668;-72
2022/07/11 06:58:35;;;;;;;4.57;3.87;;;20.40;99.90;;;;;;5047026;28;20217;-72
2022/07/11 07:01:03;;;;;;;4.90;4.40;;;20.50;99.90;;;;;;5047282;28;20233;-74
2022/07/11 07:03:30;;;;;;;5.10;4.60;;;20.20;99.90;;;;;;5029086;28;20220;-73
2022/07/11 07:05:57;;;;;;;10.00;4.47;;;20.50;99.90;;;;;;5046939;28;20507;-72
2022/07/11 07:08:27;;;;;;;5.00;4.23;;;20.60;99.90;;;;;;5047302;28;20424;-73
2022/07/11 07:10:54;;;;;;;4.30;3.90;;;20.70;99.90;;;;;;5046996;28;20522;-72
2022/07/11 07:13:23;;;;;;;5.40;4.47;;;21.00;99.90;;;;;;5047482;28;20786;-71
2022/07/11 07:15:49;;;;;;;4.70;4.30;;;20.60;99.90;;;;;;5046998;28;20409;-72
2022/07/11 07:18:15;;;;;;;4.43;3.97;;;20.40;99.90;;;;;;5046962;28;20449;-73
2022/07/11 07:20:41;;;;;;;4.37;3.93;;;20.80;99.90;;;;;;5046086;28;20476;-72
2022/07/11 07:23:07;;;;;;;3.53;3.23;;;21.10;99.90;;;;;;5047461;28;20202;-72
2022/07/11 07:25:33;;;;;;;3.87;3.20;;;21.30;99.90;;;;;;5047037;28;20336;-72
2022/07/11 07:27:59;;;;;;;4.77;4.00;;;21.40;99.90;;;;;;5047546;28;20183;-72
2022/07/11 07:30:25;;;;;;;7.20;3.50;;;21.50;99.90;;;;;;5028828;28;20526;-72
2022/07/11 07:32:50;;;;;;;3.83;3.53;;;21.70;99.90;;;;;;5046862;28;20753;-73
2022/07/11 07:35:16;;;;;;;5.07;3.60;;;21.80;99.90;;;;;;5047009;28;20193;-72
2022/07/11 07:37:42;;;;;;;3.90;3.60;;;21.90;99.90;;;;;;5047002;28;20625;-72
2022/07/11 07:40:08;;;;;;;4.10;3.70;;;22.00;99.90;;;;;;5046521;28;20221;-73
2022/07/11 07:42:33;;;;;;;3.90;3.50;;;21.90;99.90;;;;;;5046940;28;20186;-73
2022/07/11 07:44:59;;;;;;;3.93;3.63;;;22.10;99.90;;;;;;5047006;28;20409;-72
2022/07/11 07:47:25;;;;;;;4.77;3.33;;;22.00;99.90;;;;;;5046158;28;20574;-73
2022/07/11 07:49:50;;;;;;;10.67;3.90;;;22.10;99.90;;;;;;5046683;28;20207;-72
2022/07/11 07:52:16;;;;;;;4.13;3.50;;;22.00;99.90;;;;;;5045483;28;20178;-72
2022/07/11 07:54:42;;;;;;;6.03;3.23;;;21.90;99.90;;;;;;5046439;28;20171;-72
2022/07/11 07:57:08;;;;;;;2.67;2.40;;;21.70;99.90;;;;;;5046508;28;20424;-73
2022/07/11 07:59:34;;;;;;;3.70;3.33;;;21.70;99.90;;;;;;5046144;28;20203;-73
2022/07/11 08:01:59;;;;;;;4.90;3.13;;;22.00;99.90;;;;;;5046122;28;20519;-73
2022/07/11 08:04:25;;;;;;;3.70;2.70;;;22.50;99.90;;;;;;5046524;28;20205;-72
2022/07/11 08:06:51;;;;;;;3.47;2.70;;;22.50;99.90;;;;;;5046306;28;20179;-73
2022/07/11 08:09:16;;;;;;;3.33;2.87;;;22.30;99.90;;;;;;5046604;28;20182;-73
2022/07/11 08:11:42;;;;;;;4.10;2.20;;;22.20;99.90;;;;;;5046527;28;21002;-73
2022/07/11 08:14:08;;;;;;;3.17;2.20;;;22.10;99.90;;;;;;5046674;28;20663;-71
2022/07/11 08:16:34;;;;;;;2.30;1.93;;;22.10;99.90;;;;;;5045510;28;20190;-72
2022/07/11 08:19:02;;;;;;;3.50;2.10;;;21.70;99.90;;;;;;5045958;28;20179;-72
2022/07/11 08:21:31;;;;;;;3.10;2.10;;;21.70;99.90;;;;;;5046148;28;20449;-72
2022/07/11 08:23:57;;;;;;;4.07;2.63;;;21.90;99.90;;;;;;5046452;28;21730;-73
2022/07/11 08:26:23;;;;;;;3.67;2.60;;;22.10;99.90;;;;;;5046272;28;20421;-72
2022/07/11 08:28:51;;;;;;;2.83;2.10;;;22.00;99.90;;;;;;5046044;28;20447;-72
2022/07/11 08:31:16;;;;;;;2.33;2.13;;;21.80;99.90;;;;;;5045784;28;20490;-73
2022/07/11 08:33:42;;;;;;;2.47;2.27;;;21.80;99.90;;;;;;5046034;28;20429;-73
2022/07/11 08:36:08;;;;;;;3.50;2.10;;;21.80;99.90;;;;;;5046122;28;20197;-72
2022/07/11 08:38:33;;;;;;;2.60;2.30;;;22.00;99.90;;;;;;5046145;28;20190;-72
2022/07/11 08:40:59;;;;;;;3.33;2.33;;;22.10;99.90;;;;;;5045509;28;20706;-72
2022/07/11 08:43:29;;;;;;;2.30;2.10;;;21.70;99.90;;;;;;5045493;28;20251;-72
2022/07/11 08:45:55;;;;;;;4.17;1.80;;;21.50;99.90;;;;;;5045154;28;20661;-73
2022/07/11 08:48:22;;;;;;;3.90;1.87;;;21.60;99.90;;;;;;5045404;28;20417;-72
2022/07/11 08:50:50;;;;;;;1.87;1.70;;;22.00;99.90;;;;;;5045251;28;20532;-73
2022/07/11 08:53:16;;;;;;;3.87;2.30;;;22.40;99.90;;;;;;5045037;28;20417;-71
2022/07/11 08:55:42;;;;;;;3.10;2.33;;;22.20;99.90;;;;;;5045313;28;20428;-72
2022/07/11 08:58:09;;;;;;;2.47;2.20;;;22.00;99.90;;;;;;5045258;28;20289;-73
2022/07/11 09:00:36;;;;;;;2.00;1.80;;;22.20;99.90;;;;;;5044941;28;20499;-72
2022/07/11 09:03:03;;;;;;;2.30;1.40;;;22.70;99.90;;;;;;5044996;28;20786;-72
2022/07/11 09:05:30;;;;;;;2.40;1.57;;;23.00;99.20;;;;;;5045569;28;20433;-72
2022/07/11 09:07:56;;;;;;;1.80;1.70;;;23.20;98.80;;;;;;5045128;28;20409;-72
2022/07/11 09:10:22;;;;;;;2.00;1.60;;;23.00;99.40;;;;;;5045304;28;20428;-72
2022/07/11 09:13:04;;;;;;;3.10;1.53;;;23.20;99.10;;;;;;5045300;28;20190;-74
2022/07/11 09:15:43;;;;;;;1.80;1.60;;;23.40;99.10;;;;;;5044620;28;20688;-72
2022/07/11 09:18:32;;;;;;;2.10;1.80;;;23.40;98.50;;;;;;5043833;28;20405;-71
2022/07/11 09:26:34;;;;;;;2.17;1.97;;;23.80;97.50;;;;;;5044990;28;20396;-72
2022/07/11 09:29:04;;;;;;;1.60;1.50;;;23.70;97.00;;;;;;5044688;28;20409;-72
2022/07/11 09:31:34;;;;;;;2.10;1.63;;;23.70;97.50;;;;;;5043980;28;20448;-72
2022/07/11 09:34:03;;;;;;;3.33;1.60;;;23.50;97.60;;;;;;5044934;28;20451;-73
2022/07/11 09:36:44;;;;;;;5.00;2.20;;;23.20;97.80;;;;;;5044499;28;20786;-73
2022/07/11 09:39:12;;;;;;;3.57;2.10;;;22.80;98.50;;;;;;5044311;28;20439;-72
2022/07/11 09:41:38;;;;;;;6.43;2.37;;;23.20;98.60;;;;;;5044521;28;20469;-72
2022/07/11 09:44:14;;;;;;;2.17;1.97;;;23.60;98.30;;;;;;5043737;28;20464;-72
2022/07/11 09:46:46;;;;;;;2.30;2.10;;;24.30;97.50;;;;;;5043726;28;20459;-71
2022/07/11 09:49:12;;;;;;;3.47;2.20;;;24.30;97.80;;;;;;5043933;28;20992;-72
2022/07/11 09:51:39;;;;;;;5.30;2.30;;;24.40;96.80;;;;;;5044148;28;20475;-72
2022/07/11 09:54:06;;;;;;;2.90;1.50;;;24.20;97.30;;;;;;5044132;28;20417;-72
2022/07/11 09:56:40;;;;;;;1.60;1.50;;;24.00;97.00;;;;;;5043927;28;20511;-72
2022/07/11 09:59:08;;;;;;;2.40;1.70;;;24.20;97.20;;;;;;5043939;28;20486;-72
2022/07/11 10:01:34;;;;;;;1.70;1.30;;;24.00;98.20;;;;;;5043854;28;20423;-72
2022/07/11 10:04:00;;;;;;;1.77;1.47;;;24.10;97.50;;;;;;5044286;28;20539;-72
2022/07/11 10:06:27;;;;;;;1.80;1.30;;;24.00;97.00;;;;;;5044361;28;20871;-72
2022/07/11 10:08:53;;;;;;;2.60;1.87;;;23.80;97.00;;;;;;5044536;28;20248;-72
2022/07/11 10:11:19;;;;;;;1.50;1.20;;;24.00;97.10;;;;;;5044337;28;20448;-72
2022/07/11 10:13:45;;;;;;;1.43;1.33;;;24.50;97.40;;;;;;5043742;28;20864;-72
2022/07/11 10:16:54;;;;;;;1.30;1.20;;;24.30;95.90;;;;;;5043734;28;20416;-73
2022/07/11 10:19:28;;;;;;;4.77;1.50;;;24.10;96.10;;;;;;5021306;28;20199;-73
2022/07/11 10:22:18;;;;;;;1.53;1.23;;;23.90;96.40;;;;;;5021609;28;20463;-72
2022/07/11 10:24:56;;;;;;;2.30;1.20;;;23.60;96.90;;;;;;5036158;28;20480;-72
2022/07/11 10:27:48;;;;;;;1.40;1.20;;;23.30;96.90;;;;;;5043966;28;20417;-73
2022/07/11 10:30:55;;;;;;;2.33;1.60;;;23.20;97.10;;;;;;5044561;28;20449;-72
2022/07/11 10:33:21;;;;;;;2.27;1.73;;;24.00;96.80;;;;;;5044024;28;20420;-72
2022/07/11 10:35:50;;;;;;;1.50;1.40;;;24.70;95.30;;;;;;5043644;28;20982;-72
2022/07/11 10:38:16;;;;;;;1.10;0.97;;;24.80;95.10;;;;;;5043832;28;20789;-72
2022/07/11 10:40:58;;;;;;;1.63;1.10;;;25.30;94.70;;;;;;5043774;28;20957;-73
2022/07/11 10:43:33;;;;;;;1.20;1.10;;;25.60;93.70;;;;;;5043391;28;20448;-73
2022/07/11 10:46:07;;;;;;;2.97;2.67;;;25.80;93.30;;;;;;5042739;28;20444;-71
2022/07/11 10:48:51;;;;;;;2.47;1.40;;;26.00;92.70;;;;;;5043272;28;20424;-72
2022/07/11 10:51:29;;;;;;;1.53;1.03;;;24.80;93.30;;;;;;5043316;28;20953;-72
2022/07/11 10:54:04;;;;;;;2.60;1.50;;;24.20;93.80;;;;;;5043124;28;20909;-73
2022/07/11 10:56:51;;;;;;;1.57;1.47;;;24.60;93.70;;;;;;5047669;28;20409;-73
2022/07/11 10:59:19;;;;;;;1.40;1.30;;;24.90;94.60;;;;;;5047604;28;20491;-72
2022/07/11 11:02:03;;;;;;;1.57;1.47;;;25.40;93.40;;;;;;5047769;28;21297;-73
2022/07/11 11:04:45;;;;;;;1.10;1.00;;;26.00;92.60;;;;;;5048166;28;20484;-73
2022/07/11 11:07:32;;;;;;;1.40;1.30;;;26.50;91.90;;;;;;5047934;28;20444;-73
2022/07/11 11:09:59;;;;;;;3.20;1.50;;;26.50;91.40;;;;;;5047418;28;20436;-72
2022/07/11 11:13:06;;;;;;;2.17;1.53;;;26.40;91.40;;;;;;5047075;28;20419;-72
2022/07/11 11:15:33;;;;;;;1.20;1.10;;;25.40;91.80;;;;;;5046426;28;20469;-72
2022/07/11 11:18:24;;;;;;;1.80;1.27;;;25.10;92.10;;;;;;5046480;28;20937;-72
2022/07/11 11:21:06;;;;;;;1.47;1.30;;;24.60;93.10;;;;;;5046353;28;20493;-73
2022/07/11 11:23:33;;;;;;;1.90;1.40;;;24.30;93.40;;;;;;5046781;28;20461;-72
2022/07/11 11:26:18;;;;;;;1.57;1.20;;;24.90;93.00;;;;;;5046632;28;20413;-72
2022/07/11 11:29:06;;;;;;;1.20;1.00;;;25.20;92.70;;;;;;5046563;28;20424;-71
2022/07/11 11:31:32;;;;;;;1.93;1.33;;;24.60;93.10;;;;;;5046702;28;20825;-72
2022/07/11 11:34:00;;;;;;;1.60;1.17;;;24.80;93.10;;;;;;5047156;28;20425;-72
2022/07/11 11:36:27;;;;;;;1.53;1.30;;;25.60;92.30;;;;;;5046767;28;20788;-72
2022/07/11 11:38:53;;;;;;;2.33;1.57;;;26.60;90.50;;;;;;5047237;28;20435;-72
2022/07/11 11:41:29;;;;;;;1.50;1.40;;;26.70;90.20;;;;;;5047100;28;20457;-72
2022/07/11 11:43:57;;;;;;;1.20;1.10;;;26.80;90.20;;;;;;5046701;28;20205;-72
2022/07/11 11:46:27;;;;;;;2.43;1.40;;;26.90;90.60;;;;;;5029307;28;20425;-73
2022/07/11 11:48:58;;;;;;;1.33;1.23;;;28.70;86.80;;;;;;5046718;28;20752;-73
2022/07/11 11:51:26;;;;;;;1.57;1.47;;;30.70;82.10;;;;;;5046125;28;20428;-72
2022/07/11 11:53:54;;;;;;;1.77;1.50;;;29.80;79.20;;;;;;5046314;28;20522;-72
2022/07/11 11:56:32;;;;;;;2.23;1.80;;;30.40;76.50;;;;;;5046380;28;20413;-72
2022/07/11 11:59:01;;;;;;;1.30;1.20;;;30.00;76.60;;;;;;5046455;28;20529;-72
2022/07/11 12:01:29;;;;;;;1.20;1.10;;;31.70;75.30;;;;;;5045946;28;20445;-72
2022/07/11 12:03:57;;;;;;;1.70;1.60;;;33.90;69.00;;;;;;5045572;28;20812;-72
2022/07/11 12:06:31;;;;;;;1.50;1.17;;;32.50;65.60;;;;;;5045728;28;20420;-73
2022/07/11 12:09:11;;;;;;;1.60;1.10;;;31.60;67.60;;;;;;5045664;28;20405;-73
2022/07/11 12:11:42;;;;;;;1.30;1.13;;;32.90;64.60;;;;;;5045631;28;20418;-73
2022/07/11 12:14:09;;;;;;;1.30;1.10;;;33.10;63.90;;;;;;5045702;28;20425;-72
2022/07/11 12:16:43;;;;;;;2.00;1.30;;;32.20;63.50;;;;;;5045665;28;20427;-72
2022/07/11 12:19:13;;;;;;;1.60;1.33;;;30.40;67.20;;;;;;5046039;28;20401;-72
2022/07/11 12:21:40;;;;;;;2.10;1.30;;;28.90;71.30;;;;;;5045900;28;20413;-73
2022/07/11 12:24:08;;;;;;;1.30;1.20;;;27.90;76.00;;;;;;5045896;28;20867;-72
2022/07/11 12:26:35;;;;;;;2.00;1.40;;;27.50;75.70;;;;;;5045629;28;20791;-72
2022/07/11 12:29:07;;;;;;;3.70;1.67;;;27.10;78.10;;;;;;5045994;28;20412;-72
2022/07/11 12:31:53;;;;;;;1.90;1.70;;;27.30;77.90;;;;;;5027627;28;20444;-72
2022/07/11 12:34:24;;;;;;;3.23;1.60;;;26.90;79.90;;;;;;5045537;28;20409;-72
2022/07/11 12:37:00;;;;;;;2.97;1.53;;;27.40;79.10;;;;;;5046083;28;20492;-72
2022/07/11 12:39:28;;;;;;;1.50;1.40;;;28.00;77.30;;;;;;5045318;28;20413;-72
2022/07/11 12:41:56;;;;;;;1.63;1.47;;;27.20;78.10;;;;;;5045207;28;20861;-72
2022/07/11 12:47:07;;;;;;;2.30;1.57;;;26.90;79.80;;;;;;5044708;28;20459;-72
2022/07/11 12:49:33;;;;;;;2.97;1.50;;;27.90;77.30;;;;;;5045270;28;20432;-72
2022/07/11 12:52:00;;;;;;;1.70;1.60;;;28.60;77.60;;;;;;5045585;28;20240;-72
2022/07/11 12:54:30;;;;;;;1.87;1.77;;;28.10;76.10;;;;;;5045289;28;20210;-72
2022/07/11 12:57:01;;;;;;;1.57;1.30;;;27.30;78.30;;;;;;5045046;28;20960;-73
2022/07/11 12:59:28;;;;;;;5.03;1.73;;;27.40;79.10;;;;;;5044812;28;20421;-73
2022/07/11 13:01:59;;;;;;;1.90;1.80;;;27.90;81.50;;;;;;5044634;28;20427;-73
2022/07/11 13:04:30;;;;;;;3.53;2.20;;;28.00;78.20;;;;;;5044869;28;20451;-72